Coastal Inspiration — CFN4970 — position and weather

sailwx.info

Track history (hours):
 
Tides and Currents Weather Stations Pressure Air Temp Water Temp Dewpoint Dewpoint Depression Visibility Wind Speed Wind Dir Waves Ship Positions

Coastal Inspiration

Last reported at 2017-Jun-27 06:37 UTC. Time now 2017-Jun-27 22:37 UTC.
Position N 49°12' W 123°57'.

Length 160 m.

Type: Passenger vessel. MMSI: 316011408.

Date/timePositionNaut miles runAvg speedWind from/ knotsBaromVisibWave heightAir tempDewpointWater temp
2017-Jun-27 06:37N 49°12' W 123°57'0 0.0
2017-Jun-26 22:45N 49°12' W 123°57'0 0.5
2017-Jun-26 21:53N 49°12' W 123°57'1018.9
2017-Jun-26 21:22N 49°15' W 123°43'1 3.1
2017-Jun-26 20:58N 49°15' W 123°45'4 7.8
2017-Jun-26 20:30N 49°14' W 123°50'711.5
2017-Jun-26 19:55N 49°18' W 123°42'711.5
2017-Jun-26 19:21N 49°14' W 123°50'412.9
2017-Jun-26 19:00N 49°16' W 123°44'4 7.4
2017-Jun-26 18:31N 49°19' W 123°40'4 7.8
2017-Jun-26 18:00N 49°17' W 123°45'714.1
2017-Jun-26 17:30N 49°13' W 123°36'611.0
2017-Jun-26 16:59N 49°18' W 123°40'4 8.2
2017-Jun-26 16:30N 49°16' W 123°35'714.3
2017-Jun-26 16:00N 49°20' W 123°44'4 7.7
2017-Jun-26 15:28N 49°17' W 123°39'613.4
2017-Jun-26 15:00N 49°17' W 123°30'1121.3
2017-Jun-26 14:30N 49°19' W 123°14'6 5.8
2017-Jun-26 13:28N 49°18' W 123°05'0 0.0
2017-Jun-26 12:55N 49°18' W 123°05'0 0.0
2017-Jun-26 12:31N 49°18' W 123°05'0 0.0
2017-Jun-26 12:01N 49°18' W 123°05'0 0.0
2017-Jun-26 11:31N 49°18' W 123°05'0 0.0
2017-Jun-26 11:01N 49°18' W 123°05'0 0.0
2017-Jun-26 10:31N 49°18' W 123°05'0 0.0
2017-Jun-26 09:58N 49°18' W 123°05'0 0.0
2017-Jun-26 09:25N 49°18' W 123°05'0 0.0
2017-Jun-26 09:01N 49°18' W 123°05'0 0.0
2017-Jun-26 08:28N 49°18' W 123°05'0 0.0
2017-Jun-26 07:58N 49°18' W 123°05'0 0.0
2017-Jun-26 07:31N 49°18' W 123°05'0 0.0
2017-Jun-26 06:58N 49°18' W 123°05'0 0.0
2017-Jun-26 06:28N 49°18' W 123°05'0 0.0
2017-Jun-26 05:58N 49°18' W 123°05'0 0.0
2017-Jun-26 05:28N 49°18' W 123°05'0 0.0
2017-Jun-26 04:58N 49°18' W 123°05'0 0.0
2017-Jun-26 04:31N 49°18' W 123°05'0 0.0
2017-Jun-26 04:01N 49°18' W 123°05'0 0.0
2017-Jun-26 03:28N 49°18' W 123°05'0 0.0
2017-Jun-26 02:58N 49°18' W 123°05'0 0.0
2017-Jun-26 02:31N 49°18' W 123°05'0 0.0
2017-Jun-26 02:01N 49°18' W 123°05'0 0.0
2017-Jun-26 01:28N 49°18' W 123°05'0 0.0
2017-Jun-26 00:58N 49°18' W 123°05'0 0.0
2017-Jun-26 00:28N 49°18' W 123°05'0 0.0
2017-Jun-25 23:58N 49°18' W 123°05'0 0.0
2017-Jun-25 23:28N 49°18' W 123°05'0 0.0
2017-Jun-25 22:58N 49°18' W 123°05'0 0.0
2017-Jun-25 22:28N 49°18' W 123°05'0 0.0
2017-Jun-25 21:58N 49°18' W 123°05'0 0.0
2017-Jun-25 21:28N 49°18' W 123°05'0 0.0
2017-Jun-25 21:01N 49°18' W 123°05'0 0.0
2017-Jun-25 20:31N 49°18' W 123°05'0 0.0
2017-Jun-25 20:01N 49°18' W 123°05'0 0.0
2017-Jun-25 19:28N 49°18' W 123°05'0 0.0
2017-Jun-25 19:01N 49°18' W 123°05'0 0.0
2017-Jun-25 18:31N 49°18' W 123°05'0 0.0
2017-Jun-25 17:58N 49°18' W 123°05'0 0.0
2017-Jun-25 17:28N 49°18' W 123°05'0 0.0
2017-Jun-25 16:58N 49°18' W 123°05'0 0.0
2017-Jun-25 16:28N 49°18' W 123°05'0 0.0
2017-Jun-25 15:58N 49°18' W 123°05'0 0.0
2017-Jun-25 15:31N 49°18' W 123°05'0 0.0
2017-Jun-25 14:58N 49°18' W 123°05'0 0.0
2017-Jun-25 14:31N 49°18' W 123°05'0 0.0
2017-Jun-25 13:28N 49°18' W 123°05'0 0.0
2017-Jun-25 12:58N 49°18' W 123°05'0 0.0
2017-Jun-25 12:31N 49°18' W 123°05'0 0.0
2017-Jun-25 12:01N 49°18' W 123°05'0 0.0
2017-Jun-25 11:28N 49°18' W 123°05'0 0.0
2017-Jun-25 10:58N 49°18' W 123°05'0 0.0
2017-Jun-25 10:28N 49°18' W 123°05'0 0.0
2017-Jun-25 10:01N 49°18' W 123°05'0 0.0
2017-Jun-25 09:28N 49°18' W 123°05'0 0.0
2017-Jun-25 09:01N 49°18' W 123°05'0 0.0
2017-Jun-25 08:28N 49°18' W 123°05'0 0.0
2017-Jun-25 07:58N 49°18' W 123°05'0 0.0
2017-Jun-25 07:28N 49°18' W 123°05'0 0.0
2017-Jun-25 06:58N 49°18' W 123°05'0 0.0
2017-Jun-25 06:28N 49°18' W 123°05'0 0.0
2017-Jun-25 06:01N 49°18' W 123°05'0 0.0
2017-Jun-25 05:28N 49°18' W 123°05'0 0.0
2017-Jun-25 04:58N 49°18' W 123°05'0 0.0
2017-Jun-25 04:31N 49°18' W 123°05'0 0.0
2017-Jun-25 03:58N 49°18' W 123°05'0 0.0
2017-Jun-25 03:31N 49°18' W 123°05'0 0.0
2017-Jun-25 02:58N 49°18' W 123°05'0 0.0
2017-Jun-25 02:25N 49°18' W 123°05'0 0.0
2017-Jun-25 02:01N 49°18' W 123°05'0 0.0
2017-Jun-25 01:31N 49°18' W 123°05'0 0.0
2017-Jun-25 01:01N 49°18' W 123°05'0 0.0
2017-Jun-25 00:28N 49°18' W 123°05'0 0.0
2017-Jun-25 00:01N 49°18' W 123°05'0 0.0
2017-Jun-24 23:31N 49°18' W 123°05'0 0.0
2017-Jun-24 22:55N 49°18' W 123°05'0 0.0
2017-Jun-24 22:31N 49°18' W 123°05'0 0.0
2017-Jun-24 21:58N 49°18' W 123°05'0 0.0
2017-Jun-24 21:25N 49°18' W 123°05'0 0.0
2017-Jun-24 20:58N 49°18' W 123°05'0 0.0
2017-Jun-24 20:28N 49°18' W 123°05'0 0.0
2017-Jun-24 19:58N 49°18' W 123°05'0 0.0
2017-Jun-24 19:31N 49°18' W 123°05'0 0.0
2017-Jun-24 18:55N 49°18' W 123°05'0 0.0
2017-Jun-24 18:31N 49°18' W 123°05'0 0.0
2017-Jun-24 18:01N 49°18' W 123°05'0 0.0
2017-Jun-24 17:28N 49°18' W 123°05'0 0.0
2017-Jun-24 17:01N 49°18' W 123°05'0 0.0
2017-Jun-24 16:31N 49°18' W 123°05'0 0.0
2017-Jun-24 15:58N 49°18' W 123°05'0 0.0
2017-Jun-24 15:28N 49°18' W 123°05'0 0.0
2017-Jun-24 14:58N 49°18' W 123°05'0 0.0
2017-Jun-24 13:58N 49°18' W 123°05'0 0.0
2017-Jun-24 13:28N 49°18' W 123°05'0 0.0
2017-Jun-24 12:58N 49°18' W 123°05'0 0.0
2017-Jun-24 12:28N 49°18' W 123°05'0 0.0
2017-Jun-24 11:58N 49°18' W 123°05'0 0.0
2017-Jun-24 11:28N 49°18' W 123°05'0 0.0
2017-Jun-24 10:58N 49°18' W 123°05'0 0.0
2017-Jun-24 10:28N 49°18' W 123°05'0 0.0
2017-Jun-24 09:58N 49°18' W 123°05'0 0.0
2017-Jun-24 09:28N 49°18' W 123°05'0 0.0
2017-Jun-24 08:58N 49°18' W 123°05'0 0.0
2017-Jun-24 08:25N 49°18' W 123°05'0 0.0
2017-Jun-24 08:01N 49°18' W 123°05'0 0.0
2017-Jun-24 07:28N 49°18' W 123°05'0 0.0
2017-Jun-24 07:01N 49°18' W 123°05'0 0.0
2017-Jun-24 06:31N 49°18' W 123°05'0 0.0
2017-Jun-24 06:01N 49°18' W 123°05'0 0.0
2017-Jun-24 05:28N 49°18' W 123°05'0 0.0
2017-Jun-24 05:01N 49°18' W 123°05'0 0.0
2017-Jun-24 04:28N 49°18' W 123°05'0 0.0
2017-Jun-24 03:58N 49°18' W 123°05'0 0.0
2017-Jun-24 03:31N 49°18' W 123°05'0 0.0
2017-Jun-24 02:58N 49°18' W 123°05'0 0.0
2017-Jun-24 02:31N 49°18' W 123°05'0 0.0
2017-Jun-24 01:55N 49°18' W 123°05'0 0.0
2017-Jun-24 01:28N 49°18' W 123°05'0 0.0
2017-Jun-24 00:58N 49°18' W 123°05'0 0.0
2017-Jun-24 00:31N 49°18' W 123°05'0 0.0
2017-Jun-23 23:58N 49°18' W 123°05'0 0.0
2017-Jun-23 23:31N 49°18' W 123°05'0 0.0
2017-Jun-23 23:01N 49°18' W 123°05'0 0.0
2017-Jun-23 22:31N 49°18' W 123°05'0 0.0
2017-Jun-23 21:58N 49°18' W 123°05'0 0.0
2017-Jun-23 21:28N 49°18' W 123°05'0 0.0
2017-Jun-23 21:01N 49°18' W 123°05'0 0.0
2017-Jun-23 20:28N 49°18' W 123°05'0 0.0
2017-Jun-23 20:01N 49°18' W 123°05'0 0.0
2017-Jun-23 19:28N 49°18' W 123°05'0 0.0
2017-Jun-23 18:58N 49°18' W 123°05'0 0.0
2017-Jun-23 18:28N 49°18' W 123°05'0 0.0
2017-Jun-23 17:58N 49°18' W 123°05'0 0.0
2017-Jun-23 17:28N 49°18' W 123°05'0 0.0
2017-Jun-23 16:58N 49°18' W 123°05'0 0.0
2017-Jun-23 16:28N 49°18' W 123°05'0 0.0
2017-Jun-23 15:58N 49°18' W 123°05'0 0.0
2017-Jun-23 15:28N 49°18' W 123°05'0 0.0
2017-Jun-23 14:58N 49°18' W 123°05'0 0.0
2017-Jun-23 13:58N 49°18' W 123°05'0 0.0
2017-Jun-23 13:28N 49°18' W 123°05'0 0.0
2017-Jun-23 12:55N 49°18' W 123°05'0 0.0
2017-Jun-23 12:28N 49°18' W 123°05'0 0.0
2017-Jun-23 11:55N 49°18' W 123°05'0 0.0
2017-Jun-23 11:28N 49°18' W 123°05'0 0.0
2017-Jun-23 10:58N 49°18' W 123°05'0 0.0
2017-Jun-23 10:28N 49°18' W 123°05'0 0.0
2017-Jun-23 09:58N 49°18' W 123°05'0 0.0
2017-Jun-23 09:28N 49°18' W 123°05'0 0.0
2017-Jun-23 08:58N 49°18' W 123°05'0 0.0
2017-Jun-23 08:28N 49°18' W 123°05'0 0.0
2017-Jun-23 07:58N 49°18' W 123°05'0 0.0
2017-Jun-23 07:28N 49°18' W 123°05'0 0.0
2017-Jun-23 06:58N 49°18' W 123°05'0 0.0
2017-Jun-23 06:28N 49°18' W 123°05'0 0.0
2017-Jun-23 05:58N 49°18' W 123°05'0 0.0
2017-Jun-23 05:28N 49°18' W 123°05'0 0.0
2017-Jun-23 04:58N 49°18' W 123°05'0 0.0
2017-Jun-23 04:28N 49°18' W 123°05'0 0.0
2017-Jun-23 03:58N 49°18' W 123°05'0 0.0
2017-Jun-23 03:28N 49°18' W 123°05'0 0.0
2017-Jun-23 02:58N 49°18' W 123°05'0 0.0
2017-Jun-23 02:28N 49°18' W 123°05'0 0.0
2017-Jun-23 01:58N 49°18' W 123°05'0 0.0
2017-Jun-23 01:28N 49°18' W 123°05'0 0.0
2017-Jun-23 00:58N 49°18' W 123°05'0 0.0
2017-Jun-23 00:28N 49°18' W 123°05'0 0.0
2017-Jun-22 23:58N 49°18' W 123°05'0 0.0
2017-Jun-22 23:28N 49°18' W 123°05'0 0.0
2017-Jun-22 22:58N 49°18' W 123°05'0 0.0
2017-Jun-22 22:28N 49°18' W 123°05'0 0.0
2017-Jun-22 21:58N 49°18' W 123°05'0 0.0
2017-Jun-22 21:28N 49°18' W 123°05'0 0.0
2017-Jun-22 20:58N 49°18' W 123°05'0 0.0
2017-Jun-22 20:28N 49°18' W 123°05'0 0.0
2017-Jun-22 19:58N 49°18' W 123°05'0 0.0
2017-Jun-22 19:28N 49°18' W 123°05'0 0.0
2017-Jun-22 18:58N 49°18' W 123°05'0 0.0
2017-Jun-22 18:28N 49°18' W 123°05'0 0.0
2017-Jun-22 17:55N 49°18' W 123°05'0 0.0
2017-Jun-22 17:28N 49°18' W 123°05'0 0.0
2017-Jun-22 16:58N 49°18' W 123°05'0 0.0
2017-Jun-22 16:28N 49°18' W 123°05'0 0.0
2017-Jun-22 15:58N 49°18' W 123°05'0 0.0
2017-Jun-22 15:28N 49°18' W 123°05'0 0.0
2017-Jun-22 14:58N 49°18' W 123°05'0 0.0
2017-Jun-22 14:28N 49°18' W 123°05'0 0.0
2017-Jun-22 13:28N 49°18' W 123°05'0 0.0
2017-Jun-22 12:58N 49°18' W 123°05'0 0.0
2017-Jun-22 12:25N 49°18' W 123°05'0 0.0
2017-Jun-22 11:55N 49°18' W 123°05'0 0.0
2017-Jun-22 11:28N 49°18' W 123°05'0 0.0
2017-Jun-22 10:58N 49°18' W 123°05'0 0.0
2017-Jun-22 10:28N 49°18' W 123°05'0 0.0
2017-Jun-22 09:58N 49°18' W 123°05'0 0.0
2017-Jun-22 09:28N 49°18' W 123°05'0 0.0
2017-Jun-22 08:58N 49°18' W 123°05'0 0.0
2017-Jun-22 08:28N 49°18' W 123°05'0 0.0
2017-Jun-22 07:58N 49°18' W 123°05'0 0.0
2017-Jun-22 07:28N 49°18' W 123°05'0 0.0
2017-Jun-22 06:58N 49°18' W 123°05'0 0.0
2017-Jun-22 06:28N 49°18' W 123°05'0 0.0
2017-Jun-22 05:58N 49°18' W 123°05'0 0.0
2017-Jun-22 05:28N 49°18' W 123°05'0 0.0
2017-Jun-22 04:58N 49°18' W 123°05'0 0.0
2017-Jun-22 04:28N 49°18' W 123°05'0 0.0
2017-Jun-22 03:58N 49°18' W 123°05'0 0.0
2017-Jun-22 03:28N 49°18' W 123°05'0 0.0
2017-Jun-22 02:58N 49°18' W 123°05'0 0.0
2017-Jun-22 02:28N 49°18' W 123°05'0 0.0
2017-Jun-22 01:58N 49°18' W 123°05'0 0.0
2017-Jun-22 01:28N 49°18' W 123°05'0 0.0
2017-Jun-22 00:58N 49°18' W 123°05'0 0.0
2017-Jun-22 00:28N 49°18' W 123°05'0 0.0
2017-Jun-21 23:58N 49°18' W 123°05'0 0.0
2017-Jun-21 23:28N 49°18' W 123°05'0 0.0
2017-Jun-21 22:58N 49°18' W 123°05'0 0.0
2017-Jun-21 22:28N 49°18' W 123°05'0 0.0
2017-Jun-21 21:58N 49°18' W 123°05'0 0.0
2017-Jun-21 21:28N 49°18' W 123°05'0 0.0
2017-Jun-21 20:58N 49°18' W 123°05'0 0.0
2017-Jun-21 20:28N 49°18' W 123°05'0 0.0
2017-Jun-21 19:58N 49°18' W 123°05'0 0.0
2017-Jun-21 19:28N 49°18' W 123°05'0 0.0
2017-Jun-21 18:58N 49°18' W 123°05'0 0.0
2017-Jun-21 18:28N 49°18' W 123°05'0 0.0
2017-Jun-21 17:58N 49°18' W 123°05'0 0.0
2017-Jun-21 17:28N 49°18' W 123°05'0 0.0
2017-Jun-21 16:58N 49°18' W 123°05'0 0.0
2017-Jun-21 16:28N 49°18' W 123°05'0 0.0
2017-Jun-21 15:58N 49°18' W 123°05'0 0.0
2017-Jun-21 15:28N 49°18' W 123°05'0 0.0
2017-Jun-21 14:58N 49°18' W 123°05'0 0.0
2017-Jun-21 14:28N 49°18' W 123°05'0 0.0
2017-Jun-21 13:28N 49°18' W 123°05'0 0.0
2017-Jun-21 12:58N 49°18' W 123°05'0 0.0
2017-Jun-21 12:28N 49°18' W 123°05'0 0.0
2017-Jun-21 11:58N 49°18' W 123°05'0 0.0
2017-Jun-21 11:28N 49°18' W 123°05'0 0.0
2017-Jun-21 10:58N 49°18' W 123°05'0 0.0
2017-Jun-21 10:28N 49°18' W 123°05'0 0.0
2017-Jun-21 09:58N 49°18' W 123°05'0 0.0
2017-Jun-21 09:28N 49°18' W 123°05'0 0.0
2017-Jun-21 08:58N 49°18' W 123°05'0 0.0
2017-Jun-21 08:28N 49°18' W 123°05'0 0.0
2017-Jun-21 07:58N 49°18' W 123°05'0 0.0
2017-Jun-21 07:28N 49°18' W 123°05'0 0.0
2017-Jun-21 06:58N 49°18' W 123°05'0 0.0
2017-Jun-21 06:28N 49°18' W 123°05'0 0.0
2017-Jun-21 05:58N 49°18' W 123°05'0 0.0
2017-Jun-21 05:28N 49°18' W 123°05'0 0.0
2017-Jun-21 04:58N 49°18' W 123°05'0 0.0
2017-Jun-21 04:28N 49°18' W 123°05'0 0.0
2017-Jun-21 03:58N 49°18' W 123°05'0 0.0
2017-Jun-21 03:28N 49°18' W 123°05'0 0.0
2017-Jun-21 02:58N 49°18' W 123°05'0 0.0
2017-Jun-21 02:28N 49°18' W 123°05'0 0.0
2017-Jun-21 01:58N 49°18' W 123°05'0 0.0
2017-Jun-21 01:28N 49°18' W 123°05'0 0.0
2017-Jun-21 00:58N 49°18' W 123°05'0 0.0
2017-Jun-21 00:30N 49°18' W 123°05'0 0.0
2017-Jun-21 00:00N 49°18' W 123°05'0 0.0
2017-Jun-20 23:30N 49°18' W 123°05'0 0.0
2017-Jun-20 23:00N 49°18' W 123°05'0 0.0
2017-Jun-20 22:30N 49°18' W 123°05'0 0.0
2017-Jun-20 22:00N 49°18' W 123°05'0 0.0
2017-Jun-20 21:30N 49°18' W 123°05'0 0.0
2017-Jun-20 20:59N 49°18' W 123°05'0 0.1
2017-Jun-20 20:30N 49°18' W 123°05'0 0.0
2017-Jun-20 20:00N 49°18' W 123°05'0 0.0
2017-Jun-20 19:30N 49°18' W 123°05'0 0.0
2017-Jun-20 19:00N 49°18' W 123°05'0 0.0
2017-Jun-20 18:30N 49°18' W 123°05'0 0.0
2017-Jun-20 18:00N 49°18' W 123°05'0 0.0
2017-Jun-20 17:27N 49°18' W 123°05'0 0.0
2017-Jun-20 17:00N 49°18' W 123°05'0 0.0
2017-Jun-20 16:30N 49°18' W 123°05'0 0.0
2017-Jun-20 16:00N 49°18' W 123°05'0 0.0
2017-Jun-20 15:30N 49°18' W 123°05'0 0.0
2017-Jun-20 15:00N 49°18' W 123°05'0 0.0
2017-Jun-20 14:00N 49°18' W 123°05'0 0.0
2017-Jun-20 13:30N 49°18' W 123°05'0 0.0
2017-Jun-20 13:00N 49°18' W 123°05'0 0.0
2017-Jun-20 12:30N 49°18' W 123°05'0 0.0
2017-Jun-20 12:00N 49°18' W 123°05'0 0.0
2017-Jun-20 11:30N 49°18' W 123°05'0 0.0
2017-Jun-20 11:00N 49°18' W 123°05'0 0.0
2017-Jun-20 10:30N 49°18' W 123°05'0 0.0
2017-Jun-20 10:00N 49°18' W 123°05'0 0.0
2017-Jun-20 09:30N 49°18' W 123°05'0 0.0
2017-Jun-20 09:00N 49°18' W 123°05'0 0.0
2017-Jun-20 08:30N 49°18' W 123°05'0 0.0
2017-Jun-20 08:00N 49°18' W 123°05'0 0.0
2017-Jun-20 07:30N 49°18' W 123°05'0 0.0
2017-Jun-20 07:00N 49°18' W 123°05'0 0.0
2017-Jun-20 06:30N 49°18' W 123°05'0 0.0
2017-Jun-20 06:00N 49°18' W 123°05'0 0.0
2017-Jun-20 05:30N 49°18' W 123°05'0 0.0
2017-Jun-20 05:00N 49°18' W 123°05'0 0.0
2017-Jun-20 04:30N 49°18' W 123°05'0 0.0
2017-Jun-20 04:00N 49°18' W 123°05'0 0.0
2017-Jun-20 03:30N 49°18' W 123°05'0 0.0
2017-Jun-20 03:00N 49°18' W 123°05'0 0.0
2017-Jun-20 02:30N 49°18' W 123°05'0 0.0
2017-Jun-20 02:00N 49°18' W 123°05'0 0.0
2017-Jun-20 01:30N 49°18' W 123°05'0 0.0
2017-Jun-20 01:00N 49°18' W 123°05'0 0.0
2017-Jun-20 00:30N 49°18' W 123°05'0 0.0
2017-Jun-20 00:00N 49°18' W 123°05'0 0.0
2017-Jun-19 23:30N 49°18' W 123°05'0 0.0
2017-Jun-19 23:00N 49°18' W 123°05'0 0.0
2017-Jun-19 22:30N 49°18' W 123°05'0 0.0
2017-Jun-19 22:00N 49°18' W 123°05'0 0.0
2017-Jun-19 21:30N 49°18' W 123°05'0 0.0
2017-Jun-19 21:00N 49°18' W 123°05'0 0.0
2017-Jun-19 20:30N 49°18' W 123°05'0 0.0
2017-Jun-19 20:00N 49°18' W 123°05'0 0.0
2017-Jun-19 19:30N 49°18' W 123°05'0 0.0
2017-Jun-19 19:00N 49°18' W 123°05'0 0.0
2017-Jun-19 18:30N 49°18' W 123°05'0 0.0
2017-Jun-19 18:00N 49°18' W 123°05'0 0.0
2017-Jun-19 17:30N 49°18' W 123°05'0 0.0
2017-Jun-19 17:00N 49°18' W 123°05'0 0.0
2017-Jun-19 16:30N 49°18' W 123°05'0 0.0
2017-Jun-19 16:00N 49°18' W 123°05'0 0.0
2017-Jun-19 15:30N 49°18' W 123°05'0 0.0
2017-Jun-19 15:00N 49°18' W 123°05'0 0.0
2017-Jun-19 14:00N 49°18' W 123°05'0 0.0
2017-Jun-19 13:30N 49°18' W 123°05'0 0.0
2017-Jun-19 13:00N 49°18' W 123°05'0 0.0
2017-Jun-19 12:30N 49°18' W 123°05'0 0.0
2017-Jun-19 12:00N 49°18' W 123°05'0 0.0
2017-Jun-19 11:30N 49°18' W 123°05'0 0.0
2017-Jun-19 10:57N 49°18' W 123°05'0 0.0
2017-Jun-19 10:30N 49°18' W 123°05'0 0.0
2017-Jun-19 10:00N 49°18' W 123°05'0 0.0
2017-Jun-19 09:30N 49°18' W 123°05'0 0.0
2017-Jun-19 09:00N 49°18' W 123°05'0 0.0
2017-Jun-19 08:30N 49°18' W 123°05'0 0.0
2017-Jun-19 08:00N 49°18' W 123°05'0 0.0
2017-Jun-19 07:30N 49°18' W 123°05'0 0.0
2017-Jun-19 07:00N 49°18' W 123°05'0 0.0
2017-Jun-19 06:30N 49°18' W 123°05'0 0.0
2017-Jun-19 06:00N 49°18' W 123°05'0 0.0
2017-Jun-19 05:30N 49°18' W 123°05'0 0.0
2017-Jun-19 05:00N 49°18' W 123°05'0 0.0
2017-Jun-19 04:30N 49°18' W 123°05'0 0.0
2017-Jun-19 04:00N 49°18' W 123°05'0 0.0
2017-Jun-19 03:30N 49°18' W 123°05'0 0.0
2017-Jun-19 03:00N 49°18' W 123°05'0 0.0
2017-Jun-19 02:30N 49°18' W 123°05'0 0.0
2017-Jun-19 02:00N 49°18' W 123°05'0 0.0
2017-Jun-19 01:30N 49°18' W 123°05'0 0.0
2017-Jun-19 01:00N 49°18' W 123°05'0 0.0
2017-Jun-19 00:30N 49°18' W 123°05'0 0.0
2017-Jun-19 00:00N 49°18' W 123°05'0 0.0
2017-Jun-18 23:30N 49°18' W 123°05'0 0.0
2017-Jun-18 23:00N 49°18' W 123°05'0 0.0
2017-Jun-18 22:30N 49°18' W 123°05'0 0.0
2017-Jun-18 22:00N 49°18' W 123°05'0 0.0
2017-Jun-18 21:30N 49°18' W 123°05'0 0.0
2017-Jun-18 21:00N 49°18' W 123°05'0 0.0
2017-Jun-18 20:30N 49°18' W 123°05'0 0.0
2017-Jun-18 20:00N 49°18' W 123°05'0 0.0
2017-Jun-18 19:27N 49°18' W 123°05'0 0.0
2017-Jun-18 19:00N 49°18' W 123°05'0 0.0
2017-Jun-18 18:27N 49°18' W 123°05'0 0.0
2017-Jun-18 18:00N 49°18' W 123°05'0 0.0
2017-Jun-18 17:30N 49°18' W 123°05'0 0.0
2017-Jun-18 17:00N 49°18' W 123°05'0 0.0
2017-Jun-18 16:30N 49°18' W 123°05'0 0.0
2017-Jun-18 16:00N 49°18' W 123°05'0 0.0
2017-Jun-18 15:30N 49°18' W 123°05'0 0.0
2017-Jun-18 15:00N 49°18' W 123°05'0 0.0
2017-Jun-18 14:00N 49°18' W 123°05'0 0.0
2017-Jun-18 13:30N 49°18' W 123°05'0 0.0
2017-Jun-18 13:00N 49°18' W 123°05'0 0.0
2017-Jun-18 12:30N 49°18' W 123°05'0 0.0
2017-Jun-18 12:00N 49°18' W 123°05'0 0.0
2017-Jun-18 11:30N 49°18' W 123°05'0 0.0
2017-Jun-18 11:00N 49°18' W 123°05'0 0.0
2017-Jun-18 10:30N 49°18' W 123°05'0 0.0
2017-Jun-18 10:00N 49°18' W 123°05'0 0.0
2017-Jun-18 09:30N 49°18' W 123°05'0 0.0
2017-Jun-18 09:00N 49°18' W 123°05'0 0.0
2017-Jun-18 08:30N 49°18' W 123°05'0 0.0
2017-Jun-18 08:00N 49°18' W 123°05'0 0.0
2017-Jun-18 07:30N 49°18' W 123°05'0 0.0
2017-Jun-18 07:00N 49°18' W 123°05'0 0.0
2017-Jun-18 06:30N 49°18' W 123°05'0 0.0
2017-Jun-18 06:00N 49°18' W 123°05'0 0.0
2017-Jun-18 05:30N 49°18' W 123°05'0 0.0
2017-Jun-18 05:00N 49°18' W 123°05'0 0.0
2017-Jun-18 04:30N 49°18' W 123°05'0 0.0
2017-Jun-18 04:00N 49°18' W 123°05'0 0.0
2017-Jun-18 03:30N 49°18' W 123°05'0 0.0
2017-Jun-18 03:00N 49°18' W 123°05'0 0.0
2017-Jun-18 02:30N 49°18' W 123°05'0 0.0
2017-Jun-18 02:00N 49°18' W 123°05'0 0.0
2017-Jun-18 01:30N 49°18' W 123°05'0 0.0
2017-Jun-18 01:00N 49°18' W 123°05'0 0.0
2017-Jun-18 00:30N 49°18' W 123°05'0 0.0
2017-Jun-18 00:00N 49°18' W 123°05'0 0.0
2017-Jun-17 23:27N 49°18' W 123°05'0 0.0
2017-Jun-17 23:00N 49°18' W 123°05'0 0.0
2017-Jun-17 22:30N 49°18' W 123°05'0 0.0
2017-Jun-17 22:00N 49°18' W 123°05'0 0.0
2017-Jun-17 21:30N 49°18' W 123°05'0 0.0
2017-Jun-17 21:00N 49°18' W 123°05'0 0.0
2017-Jun-17 20:30N 49°18' W 123°05'0 0.0
2017-Jun-17 20:00N 49°18' W 123°05'0 0.0
2017-Jun-17 19:27N 49°18' W 123°05'0 0.0
2017-Jun-17 19:00N 49°18' W 123°05'0 0.0
2017-Jun-17 18:30N 49°18' W 123°05'0 0.0
2017-Jun-17 18:00N 49°18' W 123°05'0 0.0
2017-Jun-17 17:30N 49°18' W 123°05'0 0.0
2017-Jun-17 17:00N 49°18' W 123°05'0 0.0
2017-Jun-17 16:27N 49°18' W 123°05'0 0.0
2017-Jun-17 15:54N 49°18' W 123°05'0 0.0
2017-Jun-17 15:30N 49°18' W 123°05'0 0.0
2017-Jun-17 15:00N 49°18' W 123°05'0 0.0
2017-Jun-17 14:30N 49°18' W 123°05'0 0.0
2017-Jun-17 13:30N 49°18' W 123°05'0 0.0
2017-Jun-17 13:00N 49°18' W 123°05'0 0.0
2017-Jun-17 12:30N 49°18' W 123°05'0 0.0
2017-Jun-17 12:00N 49°18' W 123°05'0 0.0
2017-Jun-17 11:30N 49°18' W 123°05'0 0.0
2017-Jun-17 11:00N 49°18' W 123°05'0 0.0
2017-Jun-17 10:30N 49°18' W 123°05'0 0.0
2017-Jun-17 10:00N 49°18' W 123°05'0 0.0
2017-Jun-17 09:30N 49°18' W 123°05'0 0.0
2017-Jun-17 09:00N 49°18' W 123°05'0 0.0
2017-Jun-17 08:30N 49°18' W 123°05'0 0.0
2017-Jun-17 08:00N 49°18' W 123°05'0 0.0
2017-Jun-17 07:30N 49°18' W 123°05'0 0.0
2017-Jun-17 07:00N 49°18' W 123°05'  
Track history (hours):
 
Tides and Currents Weather Stations Pressure Air Temp Water Temp Dewpoint Dewpoint Depression Visibility Wind Speed Wind Dir Waves Ship Positions

Coastal Inspiration

Last reported at 2017-Jun-27 06:37 UTC. Time now 2017-Jun-27 22:37 UTC.
Position N 49°12' W 123°57'.

Length 160 m.

Type: Passenger vessel. MMSI: 316011408.

Date/timePositionNaut miles runAvg speedWind from/ knotsBaromVisibWave heightAir tempDewpointWater temp
2017-Jun-27 06:37N 49°12' W 123°57'0 0.0
2017-Jun-26 22:45N 49°12' W 123°57'0 0.5
2017-Jun-26 21:53N 49°12' W 123°57'1018.9
2017-Jun-26 21:22N 49°15' W 123°43'1 3.1
2017-Jun-26 20:58N 49°15' W 123°45'4 7.8
2017-Jun-26 20:30N 49°14' W 123°50'711.5
2017-Jun-26 19:55N 49°18' W 123°42'711.5
2017-Jun-26 19:21N 49°14' W 123°50'412.9
2017-Jun-26 19:00N 49°16' W 123°44'4 7.4
2017-Jun-26 18:31N 49°19' W 123°40'4 7.8
2017-Jun-26 18:00N 49°17' W 123°45'714.1
2017-Jun-26 17:30N 49°13' W 123°36'611.0
2017-Jun-26 16:59N 49°18' W 123°40'4 8.2
2017-Jun-26 16:30N 49°16' W 123°35'714.3
2017-Jun-26 16:00N 49°20' W 123°44'4 7.7
2017-Jun-26 15:28N 49°17' W 123°39'613.4
2017-Jun-26 15:00N 49°17' W 123°30'1121.3
2017-Jun-26 14:30N 49°19' W 123°14'6 5.8
2017-Jun-26 13:28N 49°18' W 123°05'0 0.0
2017-Jun-26 12:55N 49°18' W 123°05'0 0.0
2017-Jun-26 12:31N 49°18' W 123°05'0 0.0
2017-Jun-26 12:01N 49°18' W 123°05'0 0.0
2017-Jun-26 11:31N 49°18' W 123°05'0 0.0
2017-Jun-26 11:01N 49°18' W 123°05'0 0.0
2017-Jun-26 10:31N 49°18' W 123°05'0 0.0
2017-Jun-26 09:58N 49°18' W 123°05'0 0.0
2017-Jun-26 09:25N 49°18' W 123°05'0 0.0
2017-Jun-26 09:01N 49°18' W 123°05'0 0.0
2017-Jun-26 08:28N 49°18' W 123°05'0 0.0
2017-Jun-26 07:58N 49°18' W 123°05'0 0.0
2017-Jun-26 07:31N 49°18' W 123°05'0 0.0
2017-Jun-26 06:58N 49°18' W 123°05'0 0.0
2017-Jun-26 06:28N 49°18' W 123°05'0 0.0
2017-Jun-26 05:58N 49°18' W 123°05'0 0.0
2017-Jun-26 05:28N 49°18' W 123°05'0 0.0
2017-Jun-26 04:58N 49°18' W 123°05'0 0.0
2017-Jun-26 04:31N 49°18' W 123°05'0 0.0
2017-Jun-26 04:01N 49°18' W 123°05'0 0.0
2017-Jun-26 03:28N 49°18' W 123°05'0 0.0
2017-Jun-26 02:58N 49°18' W 123°05'0 0.0
2017-Jun-26 02:31N 49°18' W 123°05'0 0.0
2017-Jun-26 02:01N 49°18' W 123°05'0 0.0
2017-Jun-26 01:28N 49°18' W 123°05'0 0.0
2017-Jun-26 00:58N 49°18' W 123°05'0 0.0
2017-Jun-26 00:28N 49°18' W 123°05'0 0.0
2017-Jun-25 23:58N 49°18' W 123°05'0 0.0
2017-Jun-25 23:28N 49°18' W 123°05'0 0.0
2017-Jun-25 22:58N 49°18' W 123°05'0 0.0
2017-Jun-25 22:28N 49°18' W 123°05'0 0.0
2017-Jun-25 21:58N 49°18' W 123°05'0 0.0
2017-Jun-25 21:28N 49°18' W 123°05'0 0.0
2017-Jun-25 21:01N 49°18' W 123°05'0 0.0
2017-Jun-25 20:31N 49°18' W 123°05'0 0.0
2017-Jun-25 20:01N 49°18' W 123°05'0 0.0
2017-Jun-25 19:28N 49°18' W 123°05'0 0.0
2017-Jun-25 19:01N 49°18' W 123°05'0 0.0
2017-Jun-25 18:31N 49°18' W 123°05'0 0.0
2017-Jun-25 17:58N 49°18' W 123°05'0 0.0
2017-Jun-25 17:28N 49°18' W 123°05'0 0.0
2017-Jun-25 16:58N 49°18' W 123°05'0 0.0
2017-Jun-25 16:28N 49°18' W 123°05'0 0.0
2017-Jun-25 15:58N 49°18' W 123°05'0 0.0
2017-Jun-25 15:31N 49°18' W 123°05'0 0.0
2017-Jun-25 14:58N 49°18' W 123°05'0 0.0
2017-Jun-25 14:31N 49°18' W 123°05'0 0.0
2017-Jun-25 13:28N 49°18' W 123°05'0 0.0
2017-Jun-25 12:58N 49°18' W 123°05'0 0.0
2017-Jun-25 12:31N 49°18' W 123°05'0 0.0
2017-Jun-25 12:01N 49°18' W 123°05'0 0.0
2017-Jun-25 11:28N 49°18' W 123°05'0 0.0
2017-Jun-25 10:58N 49°18' W 123°05'0 0.0
2017-Jun-25 10:28N 49°18' W 123°05'0 0.0
2017-Jun-25 10:01N 49°18' W 123°05'0 0.0
2017-Jun-25 09:28N 49°18' W 123°05'0 0.0
2017-Jun-25 09:01N 49°18' W 123°05'0 0.0
2017-Jun-25 08:28N 49°18' W 123°05'0 0.0
2017-Jun-25 07:58N 49°18' W 123°05'0 0.0
2017-Jun-25 07:28N 49°18' W 123°05'0 0.0
2017-Jun-25 06:58N 49°18' W 123°05'0 0.0
2017-Jun-25 06:28N 49°18' W 123°05'0 0.0
2017-Jun-25 06:01N 49°18' W 123°05'0 0.0
2017-Jun-25 05:28N 49°18' W 123°05'0 0.0
2017-Jun-25 04:58N 49°18' W 123°05'0 0.0
2017-Jun-25 04:31N 49°18' W 123°05'0 0.0
2017-Jun-25 03:58N 49°18' W 123°05'0 0.0
2017-Jun-25 03:31N 49°18' W 123°05'0 0.0
2017-Jun-25 02:58N 49°18' W 123°05'0 0.0
2017-Jun-25 02:25N 49°18' W 123°05'0 0.0
2017-Jun-25 02:01N 49°18' W 123°05'0 0.0
2017-Jun-25 01:31N 49°18' W 123°05'0 0.0
2017-Jun-25 01:01N 49°18' W 123°05'0 0.0
2017-Jun-25 00:28N 49°18' W 123°05'0 0.0
2017-Jun-25 00:01N 49°18' W 123°05'0 0.0
2017-Jun-24 23:31N 49°18' W 123°05'0 0.0
2017-Jun-24 22:55N 49°18' W 123°05'0 0.0
2017-Jun-24 22:31N 49°18' W 123°05'0 0.0
2017-Jun-24 21:58N 49°18' W 123°05'0 0.0
2017-Jun-24 21:25N 49°18' W 123°05'0 0.0
2017-Jun-24 20:58N 49°18' W 123°05'0 0.0
2017-Jun-24 20:28N 49°18' W 123°05'0 0.0
2017-Jun-24 19:58N 49°18' W 123°05'0 0.0
2017-Jun-24 19:31N 49°18' W 123°05'0 0.0
2017-Jun-24 18:55N 49°18' W 123°05'0 0.0
2017-Jun-24 18:31N 49°18' W 123°05'0 0.0
2017-Jun-24 18:01N 49°18' W 123°05'0 0.0
2017-Jun-24 17:28N 49°18' W 123°05'0 0.0
2017-Jun-24 17:01N 49°18' W 123°05'0 0.0
2017-Jun-24 16:31N 49°18' W 123°05'0 0.0
2017-Jun-24 15:58N 49°18' W 123°05'0 0.0
2017-Jun-24 15:28N 49°18' W 123°05'0 0.0
2017-Jun-24 14:58N 49°18' W 123°05'0 0.0
2017-Jun-24 13:58N 49°18' W 123°05'0 0.0
2017-Jun-24 13:28N 49°18' W 123°05'0 0.0
2017-Jun-24 12:58N 49°18' W 123°05'0 0.0
2017-Jun-24 12:28N 49°18' W 123°05'0 0.0
2017-Jun-24 11:58N 49°18' W 123°05'0 0.0
2017-Jun-24 11:28N 49°18' W 123°05'0 0.0
2017-Jun-24 10:58N 49°18' W 123°05'0 0.0
2017-Jun-24 10:28N 49°18' W 123°05'0 0.0
2017-Jun-24 09:58N 49°18' W 123°05'0 0.0
2017-Jun-24 09:28N 49°18' W 123°05'0 0.0
2017-Jun-24 08:58N 49°18' W 123°05'0 0.0
2017-Jun-24 08:25N 49°18' W 123°05'0 0.0
2017-Jun-24 08:01N 49°18' W 123°05'0 0.0
2017-Jun-24 07:28N 49°18' W 123°05'0 0.0
2017-Jun-24 07:01N 49°18' W 123°05'0 0.0
2017-Jun-24 06:31N 49°18' W 123°05'0 0.0
2017-Jun-24 06:01N 49°18' W 123°05'0 0.0
2017-Jun-24 05:28N 49°18' W 123°05'0 0.0
2017-Jun-24 05:01N 49°18' W 123°05'0 0.0
2017-Jun-24 04:28N 49°18' W 123°05'0 0.0
2017-Jun-24 03:58N 49°18' W 123°05'0 0.0
2017-Jun-24 03:31N 49°18' W 123°05'0 0.0
2017-Jun-24 02:58N 49°18' W 123°05'0 0.0
2017-Jun-24 02:31N 49°18' W 123°05'0 0.0
2017-Jun-24 01:55N 49°18' W 123°05'0 0.0
2017-Jun-24 01:28N 49°18' W 123°05'0 0.0
2017-Jun-24 00:58N 49°18' W 123°05'0 0.0
2017-Jun-24 00:31N 49°18' W 123°05'0 0.0
2017-Jun-23 23:58N 49°18' W 123°05'0 0.0
2017-Jun-23 23:31N 49°18' W 123°05'0 0.0
2017-Jun-23 23:01N 49°18' W 123°05'0 0.0
2017-Jun-23 22:31N 49°18' W 123°05'0 0.0
2017-Jun-23 21:58N 49°18' W 123°05'0 0.0
2017-Jun-23 21:28N 49°18' W 123°05'0 0.0
2017-Jun-23 21:01N 49°18' W 123°05'0 0.0
2017-Jun-23 20:28N 49°18' W 123°05'0 0.0
2017-Jun-23 20:01N 49°18' W 123°05'0 0.0
2017-Jun-23 19:28N 49°18' W 123°05'0 0.0
2017-Jun-23 18:58N 49°18' W 123°05'0 0.0
2017-Jun-23 18:28N 49°18' W 123°05'0 0.0
2017-Jun-23 17:58N 49°18' W 123°05'0 0.0
2017-Jun-23 17:28N 49°18' W 123°05'0 0.0
2017-Jun-23 16:58N 49°18' W 123°05'0 0.0
2017-Jun-23 16:28N 49°18' W 123°05'0 0.0
2017-Jun-23 15:58N 49°18' W 123°05'0 0.0
2017-Jun-23 15:28N 49°18' W 123°05'0 0.0
2017-Jun-23 14:58N 49°18' W 123°05'0 0.0
2017-Jun-23 13:58N 49°18' W 123°05'0 0.0
2017-Jun-23 13:28N 49°18' W 123°05'0 0.0
2017-Jun-23 12:55N 49°18' W 123°05'0 0.0
2017-Jun-23 12:28N 49°18' W 123°05'0 0.0
2017-Jun-23 11:55N 49°18' W 123°05'0 0.0
2017-Jun-23 11:28N 49°18' W 123°05'0 0.0
2017-Jun-23 10:58N 49°18' W 123°05'0 0.0
2017-Jun-23 10:28N 49°18' W 123°05'0 0.0
2017-Jun-23 09:58N 49°18' W 123°05'0 0.0
2017-Jun-23 09:28N 49°18' W 123°05'0 0.0
2017-Jun-23 08:58N 49°18' W 123°05'0 0.0
2017-Jun-23 08:28N 49°18' W 123°05'0 0.0
2017-Jun-23 07:58N 49°18' W 123°05'0 0.0
2017-Jun-23 07:28N 49°18' W 123°05'0 0.0
2017-Jun-23 06:58N 49°18' W 123°05'0 0.0
2017-Jun-23 06:28N 49°18' W 123°05'0 0.0
2017-Jun-23 05:58N 49°18' W 123°05'0 0.0
2017-Jun-23 05:28N 49°18' W 123°05'0 0.0
2017-Jun-23 04:58N 49°18' W 123°05'0 0.0
2017-Jun-23 04:28N 49°18' W 123°05'0 0.0
2017-Jun-23 03:58N 49°18' W 123°05'0 0.0
2017-Jun-23 03:28N 49°18' W 123°05'0 0.0
2017-Jun-23 02:58N 49°18' W 123°05'0 0.0
2017-Jun-23 02:28N 49°18' W 123°05'0 0.0
2017-Jun-23 01:58N 49°18' W 123°05'0 0.0
2017-Jun-23 01:28N 49°18' W 123°05'0 0.0
2017-Jun-23 00:58N 49°18' W 123°05'0 0.0
2017-Jun-23 00:28N 49°18' W 123°05'0 0.0
2017-Jun-22 23:58N 49°18' W 123°05'0 0.0
2017-Jun-22 23:28N 49°18' W 123°05'0 0.0
2017-Jun-22 22:58N 49°18' W 123°05'0 0.0
2017-Jun-22 22:28N 49°18' W 123°05'0 0.0
2017-Jun-22 21:58N 49°18' W 123°05'0 0.0
2017-Jun-22 21:28N 49°18' W 123°05'0 0.0
2017-Jun-22 20:58N 49°18' W 123°05'0 0.0
2017-Jun-22 20:28N 49°18' W 123°05'0 0.0
2017-Jun-22 19:58N 49°18' W 123°05'0 0.0
2017-Jun-22 19:28N 49°18' W 123°05'0 0.0
2017-Jun-22 18:58N 49°18' W 123°05'0 0.0
2017-Jun-22 18:28N 49°18' W 123°05'0 0.0
2017-Jun-22 17:55N 49°18' W 123°05'0 0.0
2017-Jun-22 17:28N 49°18' W 123°05'0 0.0
2017-Jun-22 16:58N 49°18' W 123°05'0 0.0
2017-Jun-22 16:28N 49°18' W 123°05'0 0.0
2017-Jun-22 15:58N 49°18' W 123°05'0 0.0
2017-Jun-22 15:28N 49°18' W 123°05'0 0.0
2017-Jun-22 14:58N 49°18' W 123°05'0 0.0
2017-Jun-22 14:28N 49°18' W 123°05'0 0.0
2017-Jun-22 13:28N 49°18' W 123°05'0 0.0
2017-Jun-22 12:58N 49°18' W 123°05'0 0.0
2017-Jun-22 12:25N 49°18' W 123°05'0 0.0
2017-Jun-22 11:55N 49°18' W 123°05'0 0.0
2017-Jun-22 11:28N 49°18' W 123°05'0 0.0
2017-Jun-22 10:58N 49°18' W 123°05'0 0.0
2017-Jun-22 10:28N 49°18' W 123°05'0 0.0
2017-Jun-22 09:58N 49°18' W 123°05'0 0.0
2017-Jun-22 09:28N 49°18' W 123°05'0 0.0
2017-Jun-22 08:58N 49°18' W 123°05'0 0.0
2017-Jun-22 08:28N 49°18' W 123°05'0 0.0
2017-Jun-22 07:58N 49°18' W 123°05'0 0.0
2017-Jun-22 07:28N 49°18' W 123°05'0 0.0
2017-Jun-22 06:58N 49°18' W 123°05'0 0.0
2017-Jun-22 06:28N 49°18' W 123°05'0 0.0
2017-Jun-22 05:58N 49°18' W 123°05'0 0.0
2017-Jun-22 05:28N 49°18' W 123°05'0 0.0
2017-Jun-22 04:58N 49°18' W 123°05'0 0.0
2017-Jun-22 04:28N 49°18' W 123°05'0 0.0
2017-Jun-22 03:58N 49°18' W 123°05'0 0.0
2017-Jun-22 03:28N 49°18' W 123°05'0 0.0
2017-Jun-22 02:58N 49°18' W 123°05'0 0.0
2017-Jun-22 02:28N 49°18' W 123°05'0 0.0
2017-Jun-22 01:58N 49°18' W 123°05'0 0.0
2017-Jun-22 01:28N 49°18' W 123°05'0 0.0
2017-Jun-22 00:58N 49°18' W 123°05'0 0.0
2017-Jun-22 00:28N 49°18' W 123°05'0 0.0
2017-Jun-21 23:58N 49°18' W 123°05'0 0.0
2017-Jun-21 23:28N 49°18' W 123°05'0 0.0
2017-Jun-21 22:58N 49°18' W 123°05'0 0.0
2017-Jun-21 22:28N 49°18' W 123°05'0 0.0
2017-Jun-21 21:58N 49°18' W 123°05'0 0.0
2017-Jun-21 21:28N 49°18' W 123°05'0 0.0
2017-Jun-21 20:58N 49°18' W 123°05'0 0.0
2017-Jun-21 20:28N 49°18' W 123°05'0 0.0
2017-Jun-21 19:58N 49°18' W 123°05'0 0.0
2017-Jun-21 19:28N 49°18' W 123°05'0 0.0
2017-Jun-21 18:58N 49°18' W 123°05'0 0.0
2017-Jun-21 18:28N 49°18' W 123°05'0 0.0
2017-Jun-21 17:58N 49°18' W 123°05'0 0.0
2017-Jun-21 17:28N 49°18' W 123°05'0 0.0
2017-Jun-21 16:58N 49°18' W 123°05'0 0.0
2017-Jun-21 16:28N 49°18' W 123°05'0 0.0
2017-Jun-21 15:58N 49°18' W 123°05'0 0.0
2017-Jun-21 15:28N 49°18' W 123°05'0 0.0
2017-Jun-21 14:58N 49°18' W 123°05'0 0.0
2017-Jun-21 14:28N 49°18' W 123°05'0 0.0
2017-Jun-21 13:28N 49°18' W 123°05'0 0.0
2017-Jun-21 12:58N 49°18' W 123°05'0 0.0
2017-Jun-21 12:28N 49°18' W 123°05'0 0.0
2017-Jun-21 11:58N 49°18' W 123°05'0 0.0
2017-Jun-21 11:28N 49°18' W 123°05'0 0.0
2017-Jun-21 10:58N 49°18' W 123°05'0 0.0
2017-Jun-21 10:28N 49°18' W 123°05'0 0.0
2017-Jun-21 09:58N 49°18' W 123°05'0 0.0
2017-Jun-21 09:28N 49°18' W 123°05'0 0.0
2017-Jun-21 08:58N 49°18' W 123°05'0 0.0
2017-Jun-21 08:28N 49°18' W 123°05'0 0.0
2017-Jun-21 07:58N 49°18' W 123°05'0 0.0
2017-Jun-21 07:28N 49°18' W 123°05'0 0.0
2017-Jun-21 06:58N 49°18' W 123°05'0 0.0
2017-Jun-21 06:28N 49°18' W 123°05'0 0.0
2017-Jun-21 05:58N 49°18' W 123°05'0 0.0
2017-Jun-21 05:28N 49°18' W 123°05'0 0.0
2017-Jun-21 04:58N 49°18' W 123°05'0 0.0
2017-Jun-21 04:28N 49°18' W 123°05'0 0.0
2017-Jun-21 03:58N 49°18' W 123°05'0 0.0
2017-Jun-21 03:28N 49°18' W 123°05'0 0.0
2017-Jun-21 02:58N 49°18' W 123°05'0 0.0
2017-Jun-21 02:28N 49°18' W 123°05'0 0.0
2017-Jun-21 01:58N 49°18' W 123°05'0 0.0
2017-Jun-21 01:28N 49°18' W 123°05'0 0.0
2017-Jun-21 00:58N 49°18' W 123°05'0 0.0
2017-Jun-21 00:30N 49°18' W 123°05'0 0.0
2017-Jun-21 00:00N 49°18' W 123°05'0 0.0
2017-Jun-20 23:30N 49°18' W 123°05'0 0.0
2017-Jun-20 23:00N 49°18' W 123°05'0 0.0
2017-Jun-20 22:30N 49°18' W 123°05'0 0.0
2017-Jun-20 22:00N 49°18' W 123°05'0 0.0
2017-Jun-20 21:30N 49°18' W 123°05'0 0.0
2017-Jun-20 20:59N 49°18' W 123°05'0 0.1
2017-Jun-20 20:30N 49°18' W 123°05'0 0.0
2017-Jun-20 20:00N 49°18' W 123°05'0 0.0
2017-Jun-20 19:30N 49°18' W 123°05'0 0.0
2017-Jun-20 19:00N 49°18' W 123°05'0 0.0
2017-Jun-20 18:30N 49°18' W 123°05'0 0.0
2017-Jun-20 18:00N 49°18' W 123°05'0 0.0
2017-Jun-20 17:27N 49°18' W 123°05'0 0.0
2017-Jun-20 17:00N 49°18' W 123°05'0 0.0
2017-Jun-20 16:30N 49°18' W 123°05'0 0.0
2017-Jun-20 16:00N 49°18' W 123°05'0 0.0
2017-Jun-20 15:30N 49°18' W 123°05'0 0.0
2017-Jun-20 15:00N 49°18' W 123°05'0 0.0
2017-Jun-20 14:00N 49°18' W 123°05'0 0.0
2017-Jun-20 13:30N 49°18' W 123°05'0 0.0
2017-Jun-20 13:00N 49°18' W 123°05'0 0.0
2017-Jun-20 12:30N 49°18' W 123°05'0 0.0
2017-Jun-20 12:00N 49°18' W 123°05'0 0.0
2017-Jun-20 11:30N 49°18' W 123°05'0 0.0
2017-Jun-20 11:00N 49°18' W 123°05'0 0.0
2017-Jun-20 10:30N 49°18' W 123°05'0 0.0
2017-Jun-20 10:00N 49°18' W 123°05'0 0.0
2017-Jun-20 09:30N 49°18' W 123°05'0 0.0
2017-Jun-20 09:00N 49°18' W 123°05'0 0.0
2017-Jun-20 08:30N 49°18' W 123°05'0 0.0
2017-Jun-20 08:00N 49°18' W 123°05'0 0.0
2017-Jun-20 07:30N 49°18' W 123°05'0 0.0
2017-Jun-20 07:00N 49°18' W 123°05'0 0.0
2017-Jun-20 06:30N 49°18' W 123°05'0 0.0
2017-Jun-20 06:00N 49°18' W 123°05'0 0.0
2017-Jun-20 05:30N 49°18' W 123°05'0 0.0
2017-Jun-20 05:00N 49°18' W 123°05'0 0.0
2017-Jun-20 04:30N 49°18' W 123°05'0 0.0
2017-Jun-20 04:00N 49°18' W 123°05'0 0.0
2017-Jun-20 03:30N 49°18' W 123°05'0 0.0
2017-Jun-20 03:00N 49°18' W 123°05'0 0.0
2017-Jun-20 02:30N 49°18' W 123°05'0 0.0
2017-Jun-20 02:00N 49°18' W 123°05'0 0.0
2017-Jun-20 01:30N 49°18' W 123°05'0 0.0
2017-Jun-20 01:00N 49°18' W 123°05'0 0.0
2017-Jun-20 00:30N 49°18' W 123°05'0 0.0
2017-Jun-20 00:00N 49°18' W 123°05'0 0.0
2017-Jun-19 23:30N 49°18' W 123°05'0 0.0
2017-Jun-19 23:00N 49°18' W 123°05'0 0.0
2017-Jun-19 22:30N 49°18' W 123°05'0 0.0
2017-Jun-19 22:00N 49°18' W 123°05'0 0.0
2017-Jun-19 21:30N 49°18' W 123°05'0 0.0
2017-Jun-19 21:00N 49°18' W 123°05'0 0.0
2017-Jun-19 20:30N 49°18' W 123°05'0 0.0
2017-Jun-19 20:00N 49°18' W 123°05'0 0.0
2017-Jun-19 19:30N 49°18' W 123°05'0 0.0
2017-Jun-19 19:00N 49°18' W 123°05'0 0.0
2017-Jun-19 18:30N 49°18' W 123°05'0 0.0
2017-Jun-19 18:00N 49°18' W 123°05'0 0.0
2017-Jun-19 17:30N 49°18' W 123°05'0 0.0
2017-Jun-19 17:00N 49°18' W 123°05'0 0.0
2017-Jun-19 16:30N 49°18' W 123°05'0 0.0
2017-Jun-19 16:00N 49°18' W 123°05'0 0.0
2017-Jun-19 15:30N 49°18' W 123°05'0 0.0
2017-Jun-19 15:00N 49°18' W 123°05'0 0.0
2017-Jun-19 14:00N 49°18' W 123°05'0 0.0
2017-Jun-19 13:30N 49°18' W 123°05'0 0.0
2017-Jun-19 13:00N 49°18' W 123°05'0 0.0
2017-Jun-19 12:30N 49°18' W 123°05'0 0.0
2017-Jun-19 12:00N 49°18' W 123°05'0 0.0
2017-Jun-19 11:30N 49°18' W 123°05'0 0.0
2017-Jun-19 10:57N 49°18' W 123°05'0 0.0
2017-Jun-19 10:30N 49°18' W 123°05'0 0.0
2017-Jun-19 10:00N 49°18' W 123°05'0 0.0
2017-Jun-19 09:30N 49°18' W 123°05'0 0.0
2017-Jun-19 09:00N 49°18' W 123°05'0 0.0
2017-Jun-19 08:30N 49°18' W 123°05'0 0.0
2017-Jun-19 08:00N 49°18' W 123°05'0 0.0
2017-Jun-19 07:30N 49°18' W 123°05'0 0.0
2017-Jun-19 07:00N 49°18' W 123°05'0 0.0
2017-Jun-19 06:30N 49°18' W 123°05'0 0.0
2017-Jun-19 06:00N 49°18' W 123°05'0 0.0
2017-Jun-19 05:30N 49°18' W 123°05'0 0.0
2017-Jun-19 05:00N 49°18' W 123°05'0 0.0
2017-Jun-19 04:30N 49°18' W 123°05'0 0.0
2017-Jun-19 04:00N 49°18' W 123°05'0 0.0
2017-Jun-19 03:30N 49°18' W 123°05'0 0.0
2017-Jun-19 03:00N 49°18' W 123°05'0 0.0
2017-Jun-19 02:30N 49°18' W 123°05'0 0.0
2017-Jun-19 02:00N 49°18' W 123°05'0 0.0
2017-Jun-19 01:30N 49°18' W 123°05'0 0.0
2017-Jun-19 01:00N 49°18' W 123°05'0 0.0
2017-Jun-19 00:30N 49°18' W 123°05'0 0.0
2017-Jun-19 00:00N 49°18' W 123°05'0 0.0
2017-Jun-18 23:30N 49°18' W 123°05'0 0.0
2017-Jun-18 23:00N 49°18' W 123°05'0 0.0
2017-Jun-18 22:30N 49°18' W 123°05'0 0.0
2017-Jun-18 22:00N 49°18' W 123°05'0 0.0
2017-Jun-18 21:30N 49°18' W 123°05'0 0.0
2017-Jun-18 21:00N 49°18' W 123°05'0 0.0
2017-Jun-18 20:30N 49°18' W 123°05'0 0.0
2017-Jun-18 20:00N 49°18' W 123°05'0 0.0
2017-Jun-18 19:27N 49°18' W 123°05'0 0.0
2017-Jun-18 19:00N 49°18' W 123°05'0 0.0
2017-Jun-18 18:27N 49°18' W 123°05'0 0.0
2017-Jun-18 18:00N 49°18' W 123°05'0 0.0
2017-Jun-18 17:30N 49°18' W 123°05'0 0.0
2017-Jun-18 17:00N 49°18' W 123°05'0 0.0
2017-Jun-18 16:30N 49°18' W 123°05'0 0.0
2017-Jun-18 16:00N 49°18' W 123°05'0 0.0
2017-Jun-18 15:30N 49°18' W 123°05'0 0.0
2017-Jun-18 15:00N 49°18' W 123°05'0 0.0
2017-Jun-18 14:00N 49°18' W 123°05'0 0.0
2017-Jun-18 13:30N 49°18' W 123°05'0 0.0
2017-Jun-18 13:00N 49°18' W 123°05'0 0.0
2017-Jun-18 12:30N 49°18' W 123°05'0 0.0
2017-Jun-18 12:00N 49°18' W 123°05'0 0.0
2017-Jun-18 11:30N 49°18' W 123°05'0 0.0
2017-Jun-18 11:00N 49°18' W 123°05'0 0.0
2017-Jun-18 10:30N 49°18' W 123°05'0 0.0
2017-Jun-18 10:00N 49°18' W 123°05'0 0.0
2017-Jun-18 09:30N 49°18' W 123°05'0 0.0
2017-Jun-18 09:00N 49°18' W 123°05'0 0.0
2017-Jun-18 08:30N 49°18' W 123°05'0 0.0
2017-Jun-18 08:00N 49°18' W 123°05'0 0.0
2017-Jun-18 07:30N 49°18' W 123°05'0 0.0
2017-Jun-18 07:00N 49°18' W 123°05'0 0.0
2017-Jun-18 06:30N 49°18' W 123°05'0 0.0
2017-Jun-18 06:00N 49°18' W 123°05'0 0.0
2017-Jun-18 05:30N 49°18' W 123°05'0 0.0
2017-Jun-18 05:00N 49°18' W 123°05'0 0.0
2017-Jun-18 04:30N 49°18' W 123°05'0 0.0
2017-Jun-18 04:00N 49°18' W 123°05'0 0.0
2017-Jun-18 03:30N 49°18' W 123°05'0 0.0
2017-Jun-18 03:00N 49°18' W 123°05'0 0.0
2017-Jun-18 02:30N 49°18' W 123°05'0 0.0
2017-Jun-18 02:00N 49°18' W 123°05'0 0.0
2017-Jun-18 01:30N 49°18' W 123°05'0 0.0
2017-Jun-18 01:00N 49°18' W 123°05'0 0.0
2017-Jun-18 00:30N 49°18' W 123°05'0 0.0
2017-Jun-18 00:00N 49°18' W 123°05'0 0.0
2017-Jun-17 23:27N 49°18' W 123°05'0 0.0
2017-Jun-17 23:00N 49°18' W 123°05'0 0.0
2017-Jun-17 22:30N 49°18' W 123°05'0 0.0
2017-Jun-17 22:00N 49°18' W 123°05'0 0.0
2017-Jun-17 21:30N 49°18' W 123°05'0 0.0
2017-Jun-17 21:00N 49°18' W 123°05'0 0.0
2017-Jun-17 20:30N 49°18' W 123°05'0 0.0
2017-Jun-17 20:00N 49°18' W 123°05'0 0.0
2017-Jun-17 19:27N 49°18' W 123°05'0 0.0
2017-Jun-17 19:00N 49°18' W 123°05'0 0.0
2017-Jun-17 18:30N 49°18' W 123°05'0 0.0
2017-Jun-17 18:00N 49°18' W 123°05'0 0.0
2017-Jun-17 17:30N 49°18' W 123°05'0 0.0
2017-Jun-17 17:00N 49°18' W 123°05'0 0.0
2017-Jun-17 16:27N 49°18' W 123°05'0 0.0
2017-Jun-17 15:54N 49°18' W 123°05'0 0.0
2017-Jun-17 15:30N 49°18' W 123°05'0 0.0
2017-Jun-17 15:00N 49°18' W 123°05'0 0.0
2017-Jun-17 14:30N 49°18' W 123°05'0 0.0
2017-Jun-17 13:30N 49°18' W 123°05'0 0.0
2017-Jun-17 13:00N 49°18' W 123°05'0 0.0
2017-Jun-17 12:30N 49°18' W 123°05'0 0.0
2017-Jun-17 12:00N 49°18' W 123°05'0 0.0
2017-Jun-17 11:30N 49°18' W 123°05'0 0.0
2017-Jun-17 11:00N 49°18' W 123°05'0 0.0
2017-Jun-17 10:30N 49°18' W 123°05'0 0.0
2017-Jun-17 10:00N 49°18' W 123°05'0 0.0
2017-Jun-17 09:30N 49°18' W 123°05'0 0.0
2017-Jun-17 09:00N 49°18' W 123°05'0 0.0
2017-Jun-17 08:30N 49°18' W 123°05'0 0.0
2017-Jun-17 08:00N 49°18' W 123°05'0 0.0
2017-Jun-17 07:30N 49°18' W 123°05'0 0.0
2017-Jun-17 07:00N 49°18' W 123°05'  

Dump ship's entire track history